Time;durP1;ratioP1;P1;durP2;ratioP2;P2;SDS_P1;SDS_P2;PMS_P1;PMS_P2;Temp;Humidity;BMP_temperature;BMP_pressure;BME280_temperature;BME280_humidity;BME280_pressure;Samples;Min_cycle;Max_cycle;Signal;HPM_P1;HPM_P2
2022/04/25 00:01:19;;;;;;;21.97;14.63;;;;;;;13.24;77.32;92169.03;5089853;28;20228;-74
2022/04/25 00:03:45;;;;;;;22.87;16.60;;;;;;;13.24;78.20;92166.41;5089860;28;20193;-75
2022/04/25 00:06:11;;;;;;;16.23;14.50;;;;;;;13.06;78.73;92172.66;5088912;28;20224;-74
2022/04/25 00:08:36;;;;;;;11.30;10.40;;;;;;;12.96;79.08;92176.28;5088686;28;20239;-75
2022/04/25 00:11:02;;;;;;;12.17;10.90;;;;;;;12.81;79.64;92160.19;5089505;28;20271;-75
2022/04/25 00:13:27;;;;;;;11.20;9.73;;;;;;;12.79;79.75;92167.59;5089347;28;20196;-75
2022/04/25 00:15:54;;;;;;;11.60;10.43;;;;;;;12.96;79.06;92171.03;5089248;28;20227;-75
2022/04/25 00:18:20;;;;;;;10.67;9.47;;;;;;;12.91;78.06;92192.16;5089436;28;20684;-74
2022/04/25 00:20:45;;;;;;;12.13;9.93;;;;;;;12.98;78.29;92187.25;5070780;28;20224;-75
2022/04/25 00:23:11;;;;;;;14.00;10.87;;;;;;;13.00;77.91;92181.72;5089793;28;20206;-75
2022/04/25 00:25:36;;;;;;;13.70;9.40;;;;;;;12.96;77.89;92172.91;5088378;28;20254;-75
2022/04/25 00:28:03;;;;;;;10.70;9.80;;;;;;;13.19;77.13;92187.50;5089910;28;20185;-74
2022/04/25 00:30:29;;;;;;;11.73;10.83;;;;;;;13.02;77.96;92171.72;5088583;28;20189;-75
2022/04/25 00:32:56;;;;;;;11.93;10.90;;;;;;;13.01;78.16;92180.66;5089955;28;20916;-75
2022/04/25 00:35:22;;;;;;;11.53;10.63;;;;;;;12.91;78.36;92181.69;5088675;28;20181;-75
2022/04/25 00:37:48;;;;;;;14.87;10.67;;;;;;;13.05;78.27;92191.31;5089064;28;20236;-74
2022/04/25 00:40:15;;;;;;;11.90;10.90;;;;;;;13.06;77.63;92193.63;5087481;28;20192;-74
2022/04/25 00:42:41;;;;;;;11.43;10.37;;;;;;;12.95;78.31;92182.59;5088299;28;20213;-75
2022/04/25 00:45:09;;;;;;;10.57;9.70;;;;;;;12.86;79.39;92188.88;5088809;28;20243;-75
2022/04/25 00:47:35;;;;;;;11.43;10.30;;;;;;;12.78;79.43;92184.38;5088873;28;20269;-75
2022/04/25 00:50:01;;;;;;;11.67;10.60;;;;;;;12.77;78.93;92175.75;5089118;28;20188;-75
2022/04/25 00:52:26;;;;;;;13.00;10.63;;;;;;;12.83;79.17;92184.25;5086674;28;20295;-75
2022/04/25 00:54:52;;;;;;;11.10;10.03;;;;;;;12.67;79.24;92159.53;5089130;28;21087;-74
2022/04/25 00:57:17;;;;;;;11.23;10.33;;;;;;;12.81;79.39;92181.94;5087390;28;20255;-75
2022/04/25 00:59:44;;;;;;;8.93;8.33;;;;;;;12.80;79.34;92182.25;5088545;28;20213;-75
2022/04/25 01:02:10;;;;;;;10.10;9.30;;;;;;;12.84;79.02;92180.56;5087393;28;20228;-75
2022/04/25 01:04:36;;;;;;;10.27;9.57;;;;;;;12.86;79.26;92179.19;5088425;28;20219;-75
2022/04/25 01:07:02;;;;;;;10.53;9.30;;;;;;;12.83;79.09;92177.19;5088576;28;20225;-75
2022/04/25 01:09:27;;;;;;;11.03;10.17;;;;;;;12.79;79.60;92168.34;5089399;28;20184;-75
2022/04/25 01:11:53;;;;;;;8.97;8.40;;;;;;;12.69;78.96;92145.06;5071617;28;20235;-74
2022/04/25 01:14:20;;;;;;;10.17;9.33;;;;;;;12.82;79.07;92156.53;5089491;28;20208;-75
2022/04/25 01:16:47;;;;;;;10.70;9.87;;;;;;;12.83;78.98;92145.75;5090515;28;20240;-75
2022/04/25 01:19:13;;;;;;;10.00;9.30;;;;;;;12.81;79.35;92149.72;5092639;28;20196;-75
2022/04/25 01:21:43;;;;;;;10.93;10.00;;;;;;;12.79;79.22;92147.41;5089750;28;20220;-75
2022/04/25 01:29:38;;;;;;;10.73;10.03;;;;;;;12.62;78.68;92120.41;5092394;28;20252;-75
2022/04/25 01:32:04;;;;;;;10.23;9.70;;;;;;;12.70;78.70;92122.28;5091785;28;20232;-75
2022/04/25 01:34:32;;;;;;;11.30;10.03;;;;;;;12.66;79.05;92121.31;5091927;28;20206;-75
2022/04/25 01:36:57;;;;;;;11.67;10.63;;;;;;;12.53;79.74;92114.31;5091600;28;20327;-75
2022/04/25 01:39:23;;;;;;;11.57;10.10;;;;;;;12.56;79.02;92106.66;5092146;28;20185;-75
2022/04/25 01:41:48;;;;;;;11.57;10.40;;;;;;;12.49;80.08;92110.78;5091992;28;20224;-75
2022/04/25 01:44:14;;;;;;;10.30;9.57;;;;;;;12.31;80.09;92083.75;5092310;28;20197;-75
2022/04/25 01:46:39;;;;;;;11.13;10.13;;;;;;;12.32;80.26;92074.06;5092250;28;20227;-75
2022/04/25 01:49:05;;;;;;;11.20;10.17;;;;;;;12.33;80.12;92092.06;5092988;28;20214;-75
2022/04/25 01:51:32;;;;;;;11.27;10.27;;;;;;;11.94;80.15;92054.63;5091095;28;20287;-75
2022/04/25 01:53:57;;;;;;;12.43;10.57;;;;;;;12.38;79.44;92109.50;5092569;28;20250;-75
2022/04/25 01:56:23;;;;;;;11.13;10.33;;;;;;;12.38;78.58;92089.34;5091339;28;20235;-75
2022/04/25 01:58:48;;;;;;;12.10;9.90;;;;;;;12.38;79.02;92094.56;5073578;28;20202;-75
2022/04/25 02:01:14;;;;;;;10.20;9.40;;;;;;;12.36;79.17;92096.72;5091611;28;20236;-74
2022/04/25 02:03:41;;;;;;;11.80;9.87;;;;;;;12.39;79.05;92111.06;5092865;28;20246;-75
2022/04/25 02:06:07;;;;;;;10.70;9.90;;;;;;;12.36;79.09;92098.53;5091062;28;20225;-75
2022/04/25 02:08:33;;;;;;;10.43;9.70;;;;;;;12.35;79.88;92097.00;5068805;28;20189;-75
2022/04/25 02:13:43;;;;;;;11.07;10.37;;;;;;;12.21;80.79;92097.09;5092536;28;20231;-75
2022/04/25 02:16:09;;;;;;;10.03;9.43;;;;;;;12.07;81.26;92079.94;5090108;28;20220;-75
2022/04/25 02:18:35;;;;;;;11.70;10.37;;;;;;;12.10;81.25;92072.25;5092441;28;20208;-75
2022/04/25 02:21:00;;;;;;;11.93;10.90;;;;;;;12.15;81.57;92090.47;5091572;28;20296;-75
2022/04/25 02:23:26;;;;;;;12.33;11.43;;;;;;;12.05;81.81;92089.91;5090491;28;20211;-74
2022/04/25 02:25:51;;;;;;;12.33;11.10;;;;;;;11.95;82.49;92093.56;5091400;28;20258;-74
2022/04/25 02:28:17;;;;;;;11.63;10.83;;;;;;;11.88;82.76;92089.81;5073289;28;20185;-75
2022/04/25 02:30:42;;;;;;;11.67;10.57;;;;;;;12.07;81.70;92098.25;5091449;28;20236;-75
2022/04/25 02:33:08;;;;;;;11.80;10.93;;;;;;;12.00;81.92;92103.16;5091139;28;20284;-76
2022/04/25 02:35:33;;;;;;;10.60;9.80;;;;;;;11.87;82.46;92093.50;5090500;28;20239;-75
2022/04/25 02:37:58;;;;;;;11.23;9.83;;;;;;;11.84;83.02;92107.97;5091469;28;20279;-74
2022/04/25 02:40:24;;;;;;;11.90;10.90;;;;;;;11.70;83.11;92104.63;5091475;28;20241;-75
2022/04/25 02:42:49;;;;;;;13.70;10.53;;;;;;;11.70;83.41;92119.53;5091731;28;20222;-74
2022/04/25 02:45:15;;;;;;;10.83;10.13;;;;;;;11.71;82.77;92095.72;5090836;28;20260;-74
2022/04/25 02:47:41;;;;;;;12.93;10.83;;;;;;;11.76;83.25;92100.84;5090651;28;20204;-75
2022/04/25 02:50:07;;;;;;;11.40;10.43;;;;;;;11.78;83.34;92092.69;5073177;28;20189;-75
2022/04/25 02:52:32;;;;;;;11.23;9.53;;;;;;;11.80;82.99;92096.53;5090444;28;20284;-74
2022/04/25 02:54:58;;;;;;;10.70;9.63;;;;;;;11.74;83.70;92081.25;5091474;28;20226;-74
2022/04/25 02:57:23;;;;;;;11.17;10.27;;;;;;;11.67;83.86;92075.69;5090010;28;20263;-75
2022/04/25 02:59:49;;;;;;;11.30;10.30;;;;;;;11.56;84.50;92069.13;5091161;28;20224;-74
2022/04/25 03:02:15;;;;;;;11.40;10.30;;;;;;;11.47;84.81;92058.59;5090181;28;20225;-74
2022/04/25 03:04:40;;;;;;;11.97;9.53;;;;;;;11.36;85.53;92063.28;5090392;28;20191;-75
2022/04/25 03:07:06;;;;;;;13.70;10.83;;;;;;;11.53;84.81;92056.66;5090415;28;20236;-75
2022/04/25 03:09:31;;;;;;;10.97;10.00;;;;;;;11.61;84.26;92051.47;5090410;28;20201;-74
2022/04/25 03:11:58;;;;;;;11.27;10.27;;;;;;;11.49;84.62;92061.69;5091025;28;20247;-75
2022/04/25 03:14:26;;;;;;;12.63;10.67;;;;;;;11.32;85.09;92051.88;5090989;28;20189;-75
2022/04/25 03:16:51;;;;;;;11.23;10.30;;;;;;;11.51;84.65;92069.22;5088690;28;20224;-75
2022/04/25 03:19:17;;;;;;;11.07;10.00;;;;;;;11.62;83.82;92073.16;5091201;28;20219;-75
2022/04/25 03:21:43;;;;;;;10.00;9.20;;;;;;;11.55;82.32;92044.06;5090190;28;20237;-75
2022/04/25 03:24:09;;;;;;;10.77;9.27;;;;;;;11.65;83.12;92064.75;5090455;28;20181;-75
2022/04/25 03:26:34;;;;;;;10.97;10.10;;;;;;;11.51;82.90;92053.53;5088409;28;20217;-75
2022/04/25 03:29:00;;;;;;;14.13;10.37;;;;;;;11.55;82.50;92080.66;5089983;28;20187;-76
2022/04/25 03:31:25;;;;;;;10.40;9.63;;;;;;;11.57;82.43;92084.50;5090465;28;20236;-75
2022/04/25 03:33:51;;;;;;;10.53;9.53;;;;;;;11.65;82.27;92085.66;5090706;28;20248;-75
2022/04/25 03:36:16;;;;;;;10.03;9.07;;;;;;;11.55;82.94;92085.88;5090281;28;20240;-76
2022/04/25 03:38:42;;;;;;;10.23;9.50;;;;;;;11.71;82.24;92089.69;5089564;28;20189;-75
2022/04/25 03:41:08;;;;;;;11.43;9.47;;;;;;;11.60;82.98;92083.13;5062970;28;20217;-75
2022/04/25 03:43:34;;;;;;;10.33;9.30;;;;;;;11.72;83.08;92086.03;5091017;28;20181;-75
2022/04/25 03:46:02;;;;;;;11.07;10.10;;;;;;;11.61;82.83;92084.69;5089860;28;20285;-75
2022/04/25 03:48:28;;;;;;;10.30;9.60;;;;;;;11.63;82.90;92093.03;5090345;28;20226;-75
2022/04/25 03:50:54;;;;;;;10.73;9.93;;;;;;;11.52;82.52;92079.38;5089470;28;20220;-76
2022/04/25 03:53:19;;;;;;;10.10;9.30;;;;;;;11.70;82.58;92098.63;5089451;28;20188;-75
2022/04/25 03:58:30;;;;;;;11.03;10.13;;;;;;;11.81;81.72;92095.50;5089830;28;20230;-75
2022/04/25 04:00:56;;;;;;;11.43;10.43;;;;;;;11.80;81.39;92077.47;5088420;28;20233;-74
2022/04/25 04:03:22;;;;;;;14.33;10.67;;;;;;;12.08;80.57;92112.88;5090168;28;20196;-76
2022/04/25 04:05:48;;;;;;;11.77;9.43;;;;;;;12.40;79.81;92115.22;5088467;28;20295;-76
2022/04/25 04:08:14;;;;;;;12.03;10.73;;;;;;;12.29;79.46;92111.31;5088672;28;20252;-74
2022/04/25 04:10:40;;;;;;;11.43;10.43;;;;;;;12.60;78.91;92127.78;5089354;28;20226;-74
2022/04/25 04:13:06;;;;;;;10.87;9.90;;;;;;;12.77;77.65;92112.13;5089746;28;20197;-75
2022/04/25 04:15:32;;;;;;;11.50;10.53;;;;;;;12.94;77.41;92139.16;5087920;28;20250;-74
2022/04/25 04:17:58;;;;;;;10.00;9.27;;;;;;;13.11;76.85;92138.44;5089249;28;20212;-74
2022/04/25 04:20:23;;;;;;;15.90;11.10;;;;;;;13.27;76.36;92131.72;5089802;28;20217;-74
2022/04/25 04:22:49;;;;;;;14.30;10.40;;;;;;;13.45;75.69;92137.75;5089309;28;20580;-74
2022/04/25 04:25:14;;;;;;;10.93;10.23;;;;;;;13.43;75.57;92138.03;5089533;28;20219;-75
2022/04/25 04:27:42;;;;;;;11.43;10.33;;;;;;;13.51;75.27;92137.28;5089761;28;20220;-74
2022/04/25 04:30:12;;;;;;;11.13;10.33;;;;;;;13.85;74.29;92145.16;5088252;28;20203;-75
2022/04/25 04:32:40;;;;;;;9.90;9.00;;;;;;;13.22;75.23;92128.44;5088314;28;20213;-74
2022/04/25 04:35:11;;;;;;;12.07;10.23;;;;;;;14.01;74.02;92150.72;5089466;28;20220;-75
2022/04/25 04:37:38;;;;;;;10.63;9.63;;;;;;;14.24;72.24;92133.75;5089294;28;20254;-74
2022/04/25 04:42:50;;;;;;;11.10;10.33;;;;;;;14.78;70.72;92143.50;5088945;28;20257;-74
2022/04/25 04:45:16;;;;;;;10.50;9.43;;;;;;;14.60;70.81;92142.00;5088922;28;20200;-74
2022/04/25 04:47:41;;;;;;;10.97;10.23;;;;;;;15.03;69.73;92150.50;5089032;28;20176;-74
2022/04/25 04:50:14;;;;;;;10.10;9.33;;;;;;;15.09;68.67;92137.94;5086804;28;20181;-75
2022/04/25 04:52:52;;;;;;;10.03;9.23;;;;;;;15.38;67.81;92141.38;5088240;28;20628;-74
2022/04/25 04:55:17;;;;;;;10.27;9.47;;;;;;;15.26;67.67;92137.84;5078726;28;20184;-74
2022/04/25 04:57:43;;;;;;;9.97;9.23;;;;;;;15.64;67.07;92143.84;5089124;28;20239;-74
2022/04/25 05:00:15;;;;;;;12.27;10.03;;;;;;;15.88;66.61;92138.72;5090030;28;20188;-74
2022/04/25 05:02:41;;;;;;;11.50;10.63;;;;;;;15.69;67.56;92128.63;5087727;28;20212;-74
2022/04/25 05:05:07;;;;;;;11.00;10.10;;;;;;;16.19;65.39;92127.78;5071556;28;20674;-75
2022/04/25 05:07:34;;;;;;;10.30;9.70;;;;;;;15.51;66.58;92153.53;5087630;28;20233;-74
2022/04/25 05:10:00;;;;;;;10.90;9.90;;;;;;;15.66;65.99;92160.06;5088630;28;20176;-75
2022/04/25 05:12:27;;;;;;;10.37;9.50;;;;;;;16.23;63.82;92176.84;5088567;28;20240;-75
2022/04/25 05:14:53;;;;;;;10.17;9.37;;;;;;;15.95;63.01;92176.59;5089326;28;20195;-75
2022/04/25 05:17:18;;;;;;;12.03;9.60;;;;;;;16.03;62.55;92159.22;5087581;28;20228;-74
2022/04/25 05:19:43;;;;;;;10.77;9.77;;;;;;;16.07;62.51;92178.53;5089214;28;20204;-74
2022/04/25 05:22:09;;;;;;;10.17;9.17;;;;;;;16.33;60.78;92170.44;5087982;28;20220;-74
2022/04/25 05:24:34;;;;;;;9.27;8.60;;;;;;;16.54;59.71;92187.75;5088793;28;20196;-75
2022/04/25 05:27:00;;;;;;;10.07;9.20;;;;;;;16.84;58.00;92194.41;5085629;28;20235;-75
2022/04/25 05:29:25;;;;;;;12.33;9.43;;;;;;;18.17;55.70;92189.16;5089041;28;20199;-74
2022/04/25 05:31:51;;;;;;;12.60;10.30;;;;;;;18.60;56.03;92192.66;5088785;28;20228;-75
2022/04/25 05:34:16;;;;;;;11.90;9.93;;;;;;;20.18;52.25;92201.88;5088790;28;20280;-73
2022/04/25 05:36:42;;;;;;;10.27;9.50;;;;;;;21.13;48.55;92209.06;5070509;28;20232;-74
2022/04/25 05:39:09;;;;;;;10.67;9.80;;;;;;;20.52;49.08;92195.75;5088938;28;20181;-75
2022/04/25 05:41:37;;;;;;;12.67;8.90;;;;;;;20.97;48.75;92195.13;5088428;28;20230;-74
2022/04/25 05:44:03;;;;;;;11.13;8.43;;;;;;;21.42;46.84;92212.97;5088330;28;20199;-76
2022/04/25 05:46:29;;;;;;;9.30;8.60;;;;;;;20.95;47.67;92196.56;5086750;28;20227;-75
2022/04/25 05:54:23;;;;;;;10.13;9.23;;;;;;;20.31;48.95;92191.91;5087845;28;20211;-76
2022/04/25 05:56:48;;;;;;;9.70;8.93;;;;;;;19.79;50.62;92215.34;5086437;28;20231;-75
2022/04/25 05:59:14;;;;;;;10.47;9.40;;;;;;;21.47;46.56;92213.47;5087796;28;20196;-75
2022/04/25 06:01:39;;;;;;;9.63;8.93;;;;;;;22.78;43.67;92210.81;5086668;28;20286;-76
2022/04/25 06:04:05;;;;;;;13.20;10.00;;;;;;;23.94;41.45;92209.31;5091692;28;20196;-76
2022/04/25 06:06:30;;;;;;;9.85;8.82;;;;;;;25.99;36.55;92209.75;5091717;28;20238;-76
2022/04/25 06:08:55;;;;;;;10.00;9.00;;;;;;;24.68;37.99;92216.69;5092237;28;20183;-75
2022/04/25 06:11:21;;;;;;;9.95;8.82;;;;;;;24.95;37.95;92223.28;5092008;28;20232;-75
2022/04/25 06:13:47;;;;;;;11.18;8.48;;;;;;;24.09;39.69;92221.63;5092340;28;20191;-76
2022/04/25 06:16:12;;;;;;;10.75;9.70;;;;;;;20.63;46.76;92172.88;5091807;28;20231;-76
2022/04/25 06:18:38;;;;;;;9.57;8.70;;;;;;;20.10;48.90;92192.19;5092239;28;20213;-76
2022/04/25 06:21:03;;;;;;;12.60;9.93;;;;;;;18.10;54.52;92188.97;5091578;28;20227;-76
2022/04/25 06:23:30;;;;;;;12.35;8.95;;;;;;;17.86;55.17;92142.25;5091014;28;20184;-76
2022/04/25 06:25:56;;;;;;;11.43;10.20;;;;;;;18.28;55.08;92171.72;5091267;28;20231;-76
2022/04/25 06:28:24;;;;;;;10.27;9.27;;;;;;;17.76;58.46;92157.78;5091805;28;20195;-76
2022/04/25 06:30:50;;;;;;;11.37;10.10;;;;;;;18.14;56.65;92163.41;5091681;28;20290;-75
2022/04/25 06:33:16;;;;;;;10.93;9.87;;;;;;;18.26;56.32;92179.22;5091614;28;20194;-75
2022/04/25 06:35:41;;;;;;;10.17;9.27;;;;;;;18.25;54.77;92167.13;5091136;28;20256;-74
2022/04/25 06:38:06;;;;;;;10.70;9.93;;;;;;;18.02;54.95;92129.88;5091156;28;20225;-75
2022/04/25 06:40:32;;;;;;;10.77;9.67;;;;;;;18.22;55.17;92165.16;5091092;28;20218;-74
2022/04/25 06:42:58;;;;;;;10.60;9.67;;;;;;;18.18;54.64;92169.56;5090903;28;20185;-76
2022/04/25 06:45:23;;;;;;;10.23;9.50;;;;;;;17.35;56.12;92169.34;5090259;28;20199;-75
2022/04/25 06:47:50;;;;;;;10.57;9.33;;;;;;;17.42;57.49;92178.22;5091791;28;20193;-75
2022/04/25 06:50:15;;;;;;;9.63;8.73;;;;;;;17.46;58.56;92200.25;5091632;28;20948;-75
2022/04/25 06:52:42;;;;;;;10.57;9.67;;;;;;;17.62;56.28;92189.78;5091553;28;20193;-76
2022/04/25 06:55:08;;;;;;;9.90;8.90;;;;;;;17.73;56.97;92188.25;5091243;28;20252;-75
2022/04/25 06:57:34;;;;;;;10.43;9.60;;;;;;;17.92;55.70;92182.38;5091034;28;20228;-76
2022/04/25 07:00:08;;;;;;;10.07;9.07;;;;;;;17.97;55.27;92200.66;5091588;28;20205;-75
2022/04/25 07:02:37;;;;;;;9.70;8.87;;;;;;;18.13;54.37;92204.16;5089708;28;20223;-75
2022/04/25 07:05:07;;;;;;;10.20;9.13;;;;;;;17.89;54.49;92161.94;5089359;28;20193;-75
2022/04/25 07:07:33;;;;;;;10.80;9.20;;;;;;;18.21;53.46;92195.34;5090562;28;20296;-75
2022/04/25 07:09:58;;;;;;;11.23;9.97;;;;;;;17.94;55.37;92190.75;5091323;28;20181;-76
2022/04/25 07:12:24;;;;;;;10.27;9.37;;;;;;;18.36;53.83;92187.47;5091214;28;20228;-75
2022/04/25 07:14:49;;;;;;;12.97;9.30;;;;;;;18.36;53.95;92179.53;5090529;28;20259;-76
2022/04/25 07:17:15;;;;;;;11.13;9.90;;;;;;;18.75;52.30;92193.81;5089311;28;20244;-76
2022/04/25 07:19:41;;;;;;;11.47;9.83;;;;;;;18.03;54.29;92201.97;5089765;28;21264;-75
2022/04/25 07:30:21;;;;;;;10.63;9.60;;;;;;;19.06;52.40;92196.53;5090369;28;20195;-75
2022/04/25 07:32:46;;;;;;;11.73;9.17;;;;;;;18.28;53.54;92190.22;5089972;28;20189;-75
2022/04/25 07:35:12;;;;;;;11.13;9.43;;;;;;;18.80;51.49;92191.69;5090311;28;20198;-76
2022/04/25 07:37:37;;;;;;;9.83;8.93;;;;;;;18.94;51.45;92183.38;5089495;28;20289;-75
2022/04/25 07:40:06;;;;;;;10.37;9.43;;;;;;;18.95;50.76;92188.31;5090238;28;20185;-75
2022/04/25 07:42:32;;;;;;;10.73;9.17;;;;;;;18.59;53.59;92188.50;5087766;28;20232;-75
2022/04/25 07:44:57;;;;;;;9.17;8.53;;;;;;;18.82;51.46;92181.56;5090810;28;20214;-76
2022/04/25 07:47:23;;;;;;;9.33;8.43;;;;;;;18.82;49.96;92178.13;5089240;28;20236;-75
2022/04/25 07:49:48;;;;;;;9.27;8.37;;;;;;;18.95;50.66;92198.91;5090081;28;20213;-75
2022/04/25 07:52:14;;;;;;;9.13;7.80;;;;;;;19.16;48.08;92182.78;5089249;28;20233;-76
2022/04/25 07:54:39;;;;;;;8.23;7.73;;;;;;;18.90;49.49;92177.22;5090572;28;20281;-76
2022/04/25 07:57:05;;;;;;;8.80;8.07;;;;;;;19.28;48.24;92169.50;5089097;28;20231;-75
2022/04/25 07:59:32;;;;;;;9.90;9.03;;;;;;;19.34;48.00;92181.38;5087890;28;20193;-75
2022/04/25 08:01:57;;;;;;;15.17;9.00;;;;;;;19.29;49.34;92170.25;5088995;28;20235;-76
2022/04/25 08:04:23;;;;;;;11.83;8.40;;;;;;;19.20;49.21;92188.94;5089909;28;20186;-76
2022/04/25 08:06:48;;;;;;;10.40;8.63;;;;;;;19.60;47.80;92178.97;5088832;28;20230;-74
2022/04/25 08:09:15;;;;;;;9.53;8.60;;;;;;;19.91;47.11;92172.84;5090065;28;20215;-74
2022/04/25 08:11:40;;;;;;;8.77;8.00;;;;;;;19.67;45.96;92150.00;5090457;28;20247;-75
2022/04/25 08:19:22;;;;;;;11.47;8.27;;;;;;;20.20;42.80;92140.56;5089588;28;20197;-75
2022/04/25 08:21:48;;;;;;;8.83;7.90;;;;;;;19.94;39.45;92164.19;5090026;28;20267;-75
2022/04/25 08:24:14;;;;;;;8.27;7.57;;;;;;;20.13;40.36;92165.03;5089958;28;20203;-75
2022/04/25 08:26:40;;;;;;;12.87;8.37;;;;;;;20.03;40.02;92165.53;5088135;28;20223;-75
2022/04/25 08:29:06;;;;;;;9.53;7.73;;;;;;;20.19;39.15;92161.00;5089187;28;20199;-75
2022/04/25 08:31:33;;;;;;;8.83;8.03;;;;;;;20.41;37.54;92157.66;5089252;28;20231;-75
2022/04/25 08:34:00;;;;;;;7.67;7.07;;;;;;;20.62;37.58;92159.97;5089630;28;20190;-75
2022/04/25 08:36:25;;;;;;;8.90;8.00;;;;;;;20.78;34.68;92162.53;5086330;28;20277;-76
2022/04/25 08:38:51;;;;;;;7.50;6.80;;;;;;;20.27;38.36;92162.69;5089609;28;20206;-75
2022/04/25 08:41:21;;;;;;;8.30;7.50;;;;;;;20.50;36.02;92152.91;5089179;28;20287;-76
2022/04/25 08:43:51;;;;;;;10.13;7.43;;;;;;;20.81;34.75;92144.00;5087848;28;20188;-76
2022/04/25 08:46:17;;;;;;;13.33;7.40;;;;;;;20.71;35.00;92155.19;5087424;28;20228;-76
2022/04/25 08:48:44;;;;;;;8.70;8.00;;;;;;;20.87;35.62;92149.78;5088723;28;20198;-76
2022/04/25 08:51:11;;;;;;;9.30;7.83;;;;;;;21.10;35.27;92158.56;5089185;28;20239;-76
2022/04/25 08:53:39;;;;;;;8.20;7.53;;;;;;;21.14;33.54;92168.13;5086444;28;20179;-76
2022/04/25 08:56:07;;;;;;;12.18;7.82;;;;;;;21.15;31.98;92155.63;5087760;28;20243;-75
2022/04/25 08:58:35;;;;;;;8.27;7.50;;;;;;;21.01;34.14;92150.06;5088084;28;20186;-77
2022/04/25 09:01:01;;;;;;;7.33;6.93;;;;;;;20.84;33.12;92140.63;5088451;28;20223;-76
2022/04/25 09:03:28;;;;;;;7.70;7.10;;;;;;;21.06;34.08;92144.47;5088530;28;20196;-76
2022/04/25 09:05:53;;;;;;;8.50;7.67;;;;;;;20.99;33.85;92104.53;5088615;28;20239;-76
2022/04/25 09:08:19;;;;;;;8.20;7.43;;;;;;;21.50;32.22;92142.91;5088771;28;20259;-76
2022/04/25 09:10:45;;;;;;;8.20;7.25;;;;;;;21.56;35.91;92142.25;5089441;28;20288;-76
2022/04/25 09:13:11;;;;;;;9.60;7.68;;;;;;;21.67;31.12;92097.25;5069505;28;20213;-76
2022/04/25 09:15:36;;;;;;;8.13;7.43;;;;;;;21.96;32.02;92131.09;5089122;28;20245;-76
2022/04/25 09:18:02;;;;;;;7.93;7.25;;;;;;;22.17;32.73;92129.47;5087823;28;20225;-76
2022/04/25 09:20:28;;;;;;;7.55;7.05;;;;;;;22.11;32.26;92114.19;5086819;28;20199;-76
2022/04/25 09:22:54;;;;;;;8.82;8.02;;;;;;;22.38;30.42;92122.88;5088653;28;20194;-77
2022/04/25 09:25:20;;;;;;;10.05;7.60;;;;;;;22.34;30.60;92144.13;5087593;28;20210;-75
2022/04/25 09:27:47;;;;;;;7.72;7.05;;;;;;;22.35;30.40;92132.34;5087685;28;20210;-76
2022/04/25 09:30:20;;;;;;;7.82;7.00;;;;;;;22.12;29.31;92126.34;5088790;28;20205;-76
2022/04/25 09:32:53;;;;;;;10.25;7.82;;;;;;;21.13;30.06;92107.41;5089064;28;20192;-76
2022/04/25 09:35:37;;;;;;;8.65;7.82;;;;;;;21.57;32.56;92119.88;5088824;28;20201;-76
2022/04/25 09:38:08;;;;;;;8.10;7.47;;;;;;;21.73;34.37;92114.41;5090190;28;20229;-76
2022/04/25 09:40:38;;;;;;;8.80;8.05;;;;;;;21.94;31.88;92114.75;5093106;28;20246;-75
2022/04/25 09:43:05;;;;;;;7.63;7.13;;;;;;;22.21;31.31;92127.63;5091302;28;20192;-73
2022/04/25 09:45:35;;;;;;;8.07;7.32;;;;;;;22.40;31.04;92132.03;5089967;28;20233;-74
2022/04/25 09:48:01;;;;;;;13.73;7.70;;;;;;;22.61;29.94;92134.97;5091420;28;20207;-74
2022/04/25 09:50:27;;;;;;;8.70;7.10;;;;;;;22.47;31.54;92142.78;5091666;28;20178;-73
2022/04/25 09:53:03;;;;;;;8.02;7.32;;;;;;;21.52;31.10;92140.66;5093040;28;20199;-75
2022/04/25 09:55:36;;;;;;;7.88;7.25;;;;;;;21.39;29.49;92131.34;5092075;28;20199;-74
2022/04/25 09:58:20;;;;;;;7.10;6.50;;;;;;;21.33;30.01;92116.84;5091446;28;20224;-75
2022/04/25 10:00:47;;;;;;;8.40;7.68;;;;;;;21.60;29.94;92105.13;5091335;28;20237;-76
2022/04/25 10:03:15;;;;;;;7.78;7.05;;;;;;;21.32;29.56;92116.09;5092623;28;20212;-75
2022/04/25 10:05:45;;;;;;;7.70;7.00;;;;;;;21.78;30.16;92114.91;5089403;28;20325;-75
2022/04/25 10:08:13;;;;;;;8.35;7.68;;;;;;;22.19;29.67;92113.16;5089916;28;20217;-75
2022/04/25 10:10:41;;;;;;;8.80;7.78;;;;;;;22.09;29.30;92116.44;5092159;28;20791;-75
2022/04/25 10:13:06;;;;;;;13.02;8.93;;;;;;;21.97;30.27;92125.44;5072391;28;20190;-76
2022/04/25 10:15:32;;;;;;;9.93;7.30;;;;;;;22.46;28.30;92130.56;5091348;28;20296;-78
2022/04/25 10:18:00;;;;;;;7.97;7.18;;;;;;;22.37;29.03;92098.16;5090692;28;20206;-80
2022/04/25 10:20:26;;;;;;;7.78;7.18;;;;;;;22.57;27.86;92112.13;5091009;28;20186;-76
2022/04/25 10:22:52;;;;;;;7.85;7.22;;;;;;;22.76;30.27;92127.91;5092465;28;20268;-79
2022/04/25 10:25:18;;;;;;;8.10;6.95;;;;;;;23.21;27.49;92116.91;5091464;28;20214;-73
2022/04/25 10:27:44;;;;;;;7.28;6.63;;;;;;;23.10;29.92;92111.50;5090895;28;20190;-80
2022/04/25 10:30:16;;;;;;;6.70;6.40;;;;;;;22.73;30.33;92131.28;5091425;28;20208;-76
2022/04/25 10:32:42;;;;;;;9.00;6.97;;;;;;;21.95;30.06;92100.31;5091762;28;20194;-79
2022/04/25 10:35:14;;;;;;;7.63;7.05;;;;;;;21.50;30.05;92109.16;5089646;28;20217;-82
2022/04/25 10:37:41;;;;;;;7.50;6.90;;;;;;;21.51;29.61;92120.56;5089478;28;20249;-79
2022/04/25 10:40:09;;;;;;;13.35;8.30;;;;;;;21.82;28.42;92091.03;5090334;28;20195;-77
2022/04/25 10:46:01;;;;;;;8.32;7.72;;;;;;;22.62;27.50;92122.41;5067719;28;20240;-78
2022/04/25 10:48:28;;;;;;;9.50;7.03;;;;;;;22.61;27.73;92095.06;5089718;28;20190;-82
2022/04/25 10:51:10;;;;;;;8.52;7.68;;;;;;;23.02;25.17;92130.47;5088218;28;20224;-80
2022/04/25 10:54:00;;;;;;;9.82;7.55;;;;;;;22.65;25.16;92119.81;5091297;28;20243;-82
2022/04/25 10:56:28;;;;;;;8.73;6.55;;;;;;;23.37;25.23;92118.25;5072562;28;20267;-78
2022/04/25 10:59:25;;;;;;;7.70;7.00;;;;;;;23.48;26.26;92121.00;5091453;28;20697;-84
2022/04/25 11:01:53;;;;;;;12.45;8.70;;;;;;;22.50;25.31;92120.75;5089735;28;20246;-86
2022/04/25 11:04:20;;;;;;;17.70;13.52;;;;;;;23.09;24.85;92123.31;5092957;28;20255;-86
2022/04/25 11:06:47;;;;;;;10.68;9.02;;;;;;;23.65;24.05;92125.69;5089905;28;20226;-81
2022/04/25 11:09:40;;;;;;;7.85;7.15;;;;;;;24.03;24.37;92111.09;5089221;28;20213;-89
2022/04/25 11:12:06;;;;;;;9.68;7.80;;;;;;;23.25;24.15;92113.19;5088278;28;20647;-86
2022/04/25 11:14:32;;;;;;;8.60;7.65;;;;;;;23.19;25.62;92133.28;5073092;28;20206;-82
2022/04/25 11:17:11;;;;;;;7.35;6.72;;;;;;;23.27;27.41;92126.16;5090560;28;20233;-79
2022/04/25 11:19:47;;;;;;;7.45;6.78;;;;;;;23.67;24.94;92137.50;5089985;28;20192;-75
2022/04/25 11:22:31;;;;;;;7.78;6.85;;;;;;;23.81;24.76;92115.53;5090438;28;20241;-81
2022/04/25 11:24:56;;;;;;;7.85;7.15;;;;;;;24.02;23.13;92122.88;5090043;28;20183;-78
2022/04/25 11:27:22;;;;;;;7.97;6.90;;;;;;;23.34;23.17;92142.97;5089761;28;20272;-83
2022/04/25 11:30:17;;;;;;;8.27;5.68;;;;;;;23.29;23.50;92143.28;5073085;28;20190;-80
2022/04/25 11:32:43;;;;;;;7.53;6.88;;;;;;;22.38;21.11;92130.88;5090121;28;20218;-79
2022/04/25 11:35:09;;;;;;;7.90;7.43;;;;;;;23.05;23.64;92117.16;5088738;28;20605;-84
2022/04/25 11:37:35;;;;;;;9.40;7.13;;;;;;;23.38;24.96;92101.13;5090827;28;20231;-81
2022/04/25 11:40:09;;;;;;;7.32;6.78;;;;;;;23.22;24.43;92124.53;5091900;28;20188;-86
2022/04/25 11:42:36;;;;;;;7.45;7.05;;;;;;;23.59;23.45;92127.16;5091018;28;20288;-84
2022/04/25 11:45:04;;;;;;;13.98;7.68;;;;;;;23.35;23.22;92131.16;5091091;28;20189;-79
2022/04/25 11:47:31;;;;;;;8.25;7.20;;;;;;;23.45;22.98;92063.09;5089441;28;20220;-83
2022/04/25 11:49:58;;;;;;;8.15;7.55;;;;;;;24.27;23.12;92127.22;5090640;28;20178;-81
2022/04/25 11:52:24;;;;;;;8.48;7.65;;;;;;;24.18;23.38;92115.38;5089563;28;20643;-84
2022/04/25 11:54:50;;;;;;;7.40;6.75;;;;;;;24.13;23.84;92105.03;5089528;28;20175;-79
2022/04/25 11:57:15;;;;;;;7.95;7.55;;;;;;;23.17;24.59;92108.16;5088624;28;20292;-87
2022/04/25 11:59:41;;;;;;;7.35;6.60;;;;;;;23.06;23.35;92126.69;5089084;28;20191;-80
2022/04/25 12:02:07;;;;;;;7.82;7.43;;;;;;;24.00;22.01;92127.84;5089970;28;20219;-82